Time;durP1;ratioP1;P1;durP2;ratioP2;P2;SDS_P1;SDS_P2;PMS_P1;PMS_P2;Temp;Humidity;BMP_temperature;BMP_pressure;BME280_temperature;BME280_humidity;BME280_pressure;Samples;Min_cycle;Max_cycle;Signal;HPM_P1;HPM_P2
2022/08/21 00:01:28;;;;;;;4.63;2.03;;;17.40;99.90;;;;;;5062561;28;25140;-74
2022/08/21 00:03:54;;;;;;;5.90;2.20;;;17.40;99.90;;;;;;5053272;28;25068;-77
2022/08/21 00:06:21;;;;;;;3.45;1.92;;;17.30;99.90;;;;;;5060259;28;25142;-73
2022/08/21 00:08:46;;;;;;;8.00;2.67;;;17.30;99.90;;;;;;5067335;28;25058;-73
2022/08/21 00:11:13;;;;;;;5.00;2.30;;;17.30;99.90;;;;;;5064143;28;25046;-72
2022/08/21 00:13:39;;;;;;;8.55;3.20;;;17.30;99.90;;;;;;5069780;28;25062;-72
2022/08/21 00:16:05;;;;;;;10.68;4.20;;;17.30;99.90;;;;;;5067948;28;25058;-74
2022/08/21 00:18:31;;;;;;;7.47;2.80;;;17.30;99.90;;;;;;5069158;28;25060;-73
2022/08/21 00:20:56;;;;;;;6.93;2.50;;;17.30;99.90;;;;;;5058895;28;25064;-75
2022/08/21 00:23:22;;;;;;;5.85;2.42;;;17.30;99.90;;;;;;5055055;28;25075;-73
2022/08/21 00:25:48;;;;;;;3.83;2.50;;;17.30;99.90;;;;;;5074333;28;25131;-76
2022/08/21 00:28:14;;;;;;;8.50;2.33;;;17.20;99.90;;;;;;5070406;28;25052;-72
2022/08/21 00:30:41;;;;;;;4.88;2.38;;;17.20;99.90;;;;;;5068441;28;25065;-76
2022/08/21 00:33:08;;;;;;;5.88;2.28;;;17.20;99.90;;;;;;5069508;28;25048;-73
2022/08/21 00:35:37;;;;;;;4.60;2.30;;;17.20;99.90;;;;;;5072365;28;25099;-73
2022/08/21 00:38:05;;;;;;;5.22;2.53;;;17.20;99.90;;;;;;5057770;28;25059;-74
2022/08/21 00:40:35;;;;;;;6.38;2.67;;;17.20;99.90;;;;;;5064210;28;25080;-75
2022/08/21 00:43:03;;;;;;;5.90;2.90;;;17.30;99.90;;;;;;5062183;28;25096;-72
2022/08/21 00:45:29;;;;;;;7.30;2.92;;;17.20;99.90;;;;;;5071744;28;25084;-80
2022/08/21 00:47:55;;;;;;;9.48;2.90;;;17.20;99.90;;;;;;5091896;28;25068;-76
2022/08/21 00:50:22;;;;;;;7.70;2.70;;;17.20;99.90;;;;;;5081428;28;25078;-74
2022/08/21 00:52:50;;;;;;;7.32;2.47;;;17.30;99.90;;;;;;5068453;28;25061;-74
2022/08/21 00:55:17;;;;;;;7.68;2.63;;;17.20;99.90;;;;;;5057559;28;25073;-74
2022/08/21 00:57:47;;;;;;;5.00;2.38;;;17.20;99.90;;;;;;5051126;28;25106;-75
2022/08/21 01:00:18;;;;;;;5.10;2.67;;;17.20;99.90;;;;;;5061200;28;25066;-76
2022/08/21 01:02:45;;;;;;;9.40;2.85;;;17.20;99.90;;;;;;5068002;28;25074;-74
2022/08/21 01:05:11;;;;;;;10.55;2.95;;;17.20;99.90;;;;;;5064893;28;25077;-74
2022/08/21 01:07:37;;;;;;;4.60;2.60;;;17.20;99.90;;;;;;5068240;28;25057;-76
2022/08/21 01:10:05;;;;;;;5.63;2.55;;;17.20;99.90;;;;;;5058757;28;25045;-75
2022/08/21 01:12:31;;;;;;;8.35;3.13;;;17.20;99.90;;;;;;5054499;28;24875;-74
2022/08/21 01:14:58;;;;;;;9.70;2.53;;;17.20;99.90;;;;;;5057265;28;25065;-77
2022/08/21 01:17:24;;;;;;;8.35;2.72;;;17.20;99.90;;;;;;5060479;28;25152;-74
2022/08/21 01:19:50;;;;;;;3.17;2.20;;;17.20;99.90;;;;;;5060575;28;25076;-80
2022/08/21 01:22:15;;;;;;;5.80;2.35;;;17.20;99.90;;;;;;5065130;28;25046;-75
2022/08/21 01:24:41;;;;;;;5.28;2.58;;;17.20;99.90;;;;;;5066914;28;25075;-74
2022/08/21 01:27:07;;;;;;;7.00;2.97;;;17.10;99.90;;;;;;5052544;28;25147;-74
2022/08/21 01:29:43;;;;;;;11.32;4.03;;;17.00;99.90;;;;;;5067755;28;25114;-77
2022/08/21 01:32:14;;;;;;;7.25;2.40;;;17.10;99.90;;;;;;5055690;28;25159;-75
2022/08/21 01:34:43;;;;;;;7.97;2.65;;;17.10;99.90;;;;;;5054457;28;25055;-75
2022/08/21 01:37:10;;;;;;;7.75;2.65;;;17.10;99.90;;;;;;5059688;28;25050;-72
2022/08/21 01:39:36;;;;;;;4.30;2.53;;;17.20;99.90;;;;;;5067134;28;25080;-74
2022/08/21 01:42:03;;;;;;;8.07;3.15;;;17.10;99.90;;;;;;5069153;28;25093;-73
2022/08/21 01:44:29;;;;;;;9.23;2.55;;;17.10;99.90;;;;;;5067703;28;25069;-76
2022/08/21 01:46:55;;;;;;;7.43;2.55;;;17.00;99.90;;;;;;5059066;28;25055;-73
2022/08/21 01:49:21;;;;;;;6.78;2.67;;;17.10;99.90;;;;;;5059242;28;25065;-72
2022/08/21 01:51:47;;;;;;;5.20;2.25;;;17.10;99.90;;;;;;5067574;28;25087;-72
2022/08/21 01:54:12;;;;;;;5.45;2.08;;;17.00;99.90;;;;;;5073796;28;25054;-72
2022/08/21 01:56:42;;;;;;;7.07;2.08;;;17.00;99.90;;;;;;5069595;28;25070;-72
2022/08/21 01:59:08;;;;;;;8.45;2.83;;;17.00;99.90;;;;;;5071983;28;25115;-75
2022/08/21 02:01:34;;;;;;;6.90;2.22;;;17.00;99.90;;;;;;5077748;28;25075;-74
2022/08/21 02:03:59;;;;;;;11.38;2.95;;;16.90;99.90;;;;;;5054124;28;25068;-72
2022/08/21 02:06:26;;;;;;;4.90;2.20;;;16.90;99.90;;;;;;5070725;28;25136;-73
2022/08/21 02:08:52;;;;;;;5.47;2.13;;;16.90;99.90;;;;;;5078714;28;25063;-78
2022/08/21 02:11:18;;;;;;;6.65;1.80;;;16.80;99.90;;;;;;5084980;28;25101;-77
2022/08/21 02:13:44;;;;;;;7.35;2.55;;;16.80;99.90;;;;;;5081343;28;26203;-77
2022/08/21 02:16:10;;;;;;;7.05;2.50;;;16.90;99.90;;;;;;5083068;28;25096;-73
2022/08/21 02:18:36;;;;;;;5.60;2.40;;;16.80;99.90;;;;;;5081633;28;25066;-79
2022/08/21 02:21:03;;;;;;;8.25;2.75;;;16.90;99.90;;;;;;5085587;28;25064;-75
2022/08/21 02:23:29;;;;;;;5.90;1.88;;;16.80;99.90;;;;;;5083439;28;25052;-77
2022/08/21 02:25:57;;;;;;;8.68;2.72;;;16.70;99.90;;;;;;5072204;28;25072;-76
2022/08/21 02:28:23;;;;;;;8.82;2.75;;;16.80;99.90;;;;;;5054891;28;25126;-76
2022/08/21 02:30:50;;;;;;;4.80;2.50;;;16.80;99.90;;;;;;5064499;28;25145;-74
2022/08/21 02:33:16;;;;;;;6.50;2.70;;;16.60;99.90;;;;;;5067179;28;25145;-75
2022/08/21 02:35:44;;;;;;;8.68;3.20;;;16.60;99.90;;;;;;5063944;28;25083;-73
2022/08/21 02:38:12;;;;;;;11.40;3.65;;;16.70;99.90;;;;;;5060345;28;25059;-72
2022/08/21 02:40:40;;;;;;;6.97;3.15;;;16.70;99.90;;;;;;5060661;28;25072;-74
2022/08/21 02:43:07;;;;;;;9.32;3.83;;;16.80;99.90;;;;;;5062047;28;25072;-75
2022/08/21 02:45:33;;;;;;;6.40;3.72;;;16.70;99.90;;;;;;5066252;28;25170;-74
2022/08/21 02:48:03;;;;;;;9.77;3.75;;;16.80;99.90;;;;;;5059171;28;25082;-74
2022/08/21 02:50:34;;;;;;;10.82;3.90;;;16.70;99.90;;;;;;5064779;28;25073;-81
2022/08/21 02:53:00;;;;;;;6.60;3.97;;;16.70;99.90;;;;;;5064719;28;25051;-75
2022/08/21 02:55:29;;;;;;;11.70;4.15;;;16.60;99.90;;;;;;5062657;28;25088;-73
2022/08/21 02:57:57;;;;;;;13.85;4.97;;;16.70;99.90;;;;;;5065423;28;25121;-73
2022/08/21 03:00:25;;;;;;;8.65;3.63;;;16.70;99.90;;;;;;5064514;28;25128;-78
2022/08/21 03:02:51;;;;;;;6.30;4.22;;;16.70;99.90;;;;;;5061048;28;25058;-76
2022/08/21 03:05:17;;;;;;;12.10;4.00;;;16.60;99.90;;;;;;5067917;28;25084;-74
2022/08/21 03:07:44;;;;;;;9.85;4.32;;;16.60;99.90;;;;;;5068445;28;25087;-73
2022/08/21 03:10:10;;;;;;;12.13;5.47;;;16.50;99.90;;;;;;5068582;28;25148;-73
2022/08/21 03:12:36;;;;;;;7.95;4.75;;;16.50;99.90;;;;;;5069546;28;25075;-74
2022/08/21 03:15:07;;;;;;;13.95;4.32;;;16.50;99.90;;;;;;5067450;28;25072;-74
2022/08/21 03:17:33;;;;;;;12.23;5.77;;;16.40;99.90;;;;;;5066111;28;25061;-74
2022/08/21 03:19:59;;;;;;;11.38;5.20;;;16.40;99.90;;;;;;5054689;28;25075;-75
2022/08/21 03:22:26;;;;;;;9.52;4.32;;;16.50;99.90;;;;;;5050527;28;25076;-74
2022/08/21 03:24:53;;;;;;;11.40;4.38;;;16.50;99.90;;;;;;5070867;28;25132;-74
2022/08/21 03:27:19;;;;;;;7.13;4.05;;;16.50;99.90;;;;;;5060253;28;25073;-75
2022/08/21 03:29:44;;;;;;;12.40;4.63;;;16.50;99.90;;;;;;5069008;28;25066;-74
2022/08/21 03:32:10;;;;;;;6.75;4.03;;;16.40;99.90;;;;;;5075086;28;25105;-74
2022/08/21 03:34:37;;;;;;;9.05;4.43;;;16.40;99.90;;;;;;5061265;28;25059;-73
2022/08/21 03:37:04;;;;;;;9.10;4.90;;;16.50;99.90;;;;;;5063706;28;25061;-72
2022/08/21 03:39:30;;;;;;;10.00;4.15;;;16.50;99.90;;;;;;5083231;28;25056;-73
2022/08/21 03:41:56;;;;;;;7.75;4.35;;;16.60;99.90;;;;;;5072950;28;25065;-73
2022/08/21 03:44:21;;;;;;;12.07;4.57;;;16.60;99.90;;;;;;5066924;28;25051;-72
2022/08/21 03:46:47;;;;;;;13.38;3.90;;;16.60;99.90;;;;;;5053717;28;25083;-70
2022/08/21 03:49:13;;;;;;;9.23;4.13;;;16.50;99.90;;;;;;5062214;28;25061;-72
2022/08/21 03:51:38;;;;;;;11.93;4.70;;;16.50;99.90;;;;;;5060260;28;25126;-73
2022/08/21 03:54:04;;;;;;;17.02;4.43;;;16.50;99.90;;;;;;5066330;28;25066;-76
2022/08/21 03:56:30;;;;;;;9.75;4.65;;;16.50;99.90;;;;;;5063885;28;25087;-75
2022/08/21 03:58:56;;;;;;;11.93;5.35;;;16.40;99.90;;;;;;5063091;28;25078;-72
2022/08/21 04:01:21;;;;;;;10.90;4.38;;;16.40;99.90;;;;;;5068235;28;25082;-74
2022/08/21 04:03:47;;;;;;;18.42;5.57;;;16.30;99.90;;;;;;5070675;28;25058;-74
2022/08/21 04:06:13;;;;;;;8.20;4.57;;;16.30;99.90;;;;;;5069701;28;25081;-74
2022/08/21 04:08:38;;;;;;;7.90;5.00;;;16.30;99.90;;;;;;5055969;28;25090;-75
2022/08/21 04:11:05;;;;;;;11.50;4.90;;;16.30;99.90;;;;;;5070719;28;25174;-73
2022/08/21 04:13:31;;;;;;;10.88;4.88;;;16.30;99.90;;;;;;5068307;28;25074;-75
2022/08/21 04:15:58;;;;;;;10.70;4.47;;;16.20;99.90;;;;;;5067454;28;25146;-74
2022/08/21 04:18:24;;;;;;;10.23;5.40;;;16.30;99.90;;;;;;5066704;28;25215;-73
2022/08/21 04:20:52;;;;;;;10.07;5.32;;;16.30;99.90;;;;;;5058334;28;25067;-77
2022/08/21 04:23:22;;;;;;;15.57;5.18;;;16.30;99.90;;;;;;5058955;28;25099;-76
2022/08/21 04:25:47;;;;;;;12.75;4.95;;;16.30;99.90;;;;;;5038421;28;25158;-75
2022/08/21 04:28:13;;;;;;;11.02;5.05;;;16.30;99.90;;;;;;5063301;28;25080;-74
2022/08/21 04:30:39;;;;;;;11.80;4.53;;;16.30;99.90;;;;;;5059431;28;25150;-74
2022/08/21 04:33:04;;;;;;;12.23;5.07;;;16.30;99.90;;;;;;5054061;28;25057;-76
2022/08/21 04:35:30;;;;;;;12.13;5.07;;;16.40;99.90;;;;;;5064475;28;25074;-74
2022/08/21 04:37:57;;;;;;;7.82;4.38;;;16.40;99.90;;;;;;5064265;28;25105;-76
2022/08/21 04:40:25;;;;;;;8.57;5.05;;;16.40;99.90;;;;;;5062478;28;25480;-74
2022/08/21 04:43:00;;;;;;;11.65;4.15;;;16.30;99.90;;;;;;5058358;28;25194;-78
2022/08/21 04:45:32;;;;;;;9.10;4.63;;;16.40;99.90;;;;;;5061006;28;25083;-74
2022/08/21 04:48:00;;;;;;;8.85;4.18;;;16.50;99.90;;;;;;5064024;28;25066;-75
2022/08/21 04:50:55;;;;;;;15.68;4.97;;;16.50;99.90;;;;;;5059999;28;25074;-73
2022/08/21 04:53:26;;;;;;;7.80;4.57;;;16.50;99.90;;;;;;5029652;28;25149;-75
2022/08/21 04:55:54;;;;;;;9.25;3.70;;;16.50;99.90;;;;;;5064066;28;25107;-77
2022/08/21 04:58:22;;;;;;;13.45;5.03;;;16.60;99.90;;;;;;5050098;28;25080;-74
2022/08/21 05:00:48;;;;;;;7.63;4.13;;;16.60;99.90;;;;;;5070594;28;25056;-73
2022/08/21 05:03:16;;;;;;;10.52;4.07;;;16.60;99.90;;;;;;5070049;28;25062;-77
2022/08/21 05:05:43;;;;;;;12.25;3.92;;;16.60;99.90;;;;;;5073168;28;25078;-73
2022/08/21 05:08:12;;;;;;;9.00;4.10;;;16.60;99.90;;;;;;5065186;28;25082;-72
2022/08/21 05:10:37;;;;;;;9.23;3.70;;;16.60;99.90;;;;;;5059678;28;25051;-74
2022/08/21 05:13:05;;;;;;;8.95;3.53;;;16.70;99.90;;;;;;5058179;28;25082;-75
2022/08/21 05:15:31;;;;;;;15.05;4.22;;;16.70;99.90;;;;;;5058875;28;25090;-77
2022/08/21 05:17:57;;;;;;;12.90;4.20;;;16.80;99.90;;;;;;5056464;28;25098;-77
2022/08/21 05:20:22;;;;;;;8.95;3.60;;;16.80;99.90;;;;;;5058022;28;25092;-73
2022/08/21 05:22:48;;;;;;;8.45;4.03;;;16.80;99.90;;;;;;5070397;28;25071;-72
2022/08/21 05:25:14;;;;;;;15.05;4.07;;;16.90;99.90;;;;;;5062249;28;25077;-74
2022/08/21 05:27:39;;;;;;;10.48;4.22;;;16.90;99.90;;;;;;5061440;28;25154;-74
2022/08/21 05:30:07;;;;;;;9.38;3.38;;;16.90;99.90;;;;;;5063745;28;25075;-73
2022/08/21 05:32:33;;;;;;;16.95;4.07;;;16.90;99.90;;;;;;5058052;28;25116;-71
2022/08/21 05:34:59;;;;;;;6.68;3.10;;;17.00;99.90;;;;;;5067858;28;25111;-76
2022/08/21 05:37:25;;;;;;;14.32;4.28;;;17.10;99.90;;;;;;5073414;28;25085;-73
2022/08/21 05:39:50;;;;;;;15.77;3.53;;;17.00;99.90;;;;;;5061609;28;25100;-75
2022/08/21 05:42:16;;;;;;;12.07;3.72;;;17.10;99.90;;;;;;5062144;28;25155;-75
2022/08/21 05:44:42;;;;;;;13.73;3.38;;;17.20;99.90;;;;;;5061314;28;25058;-75
2022/08/21 05:47:10;;;;;;;11.38;3.65;;;17.30;99.90;;;;;;5056563;28;25114;-74
2022/08/21 05:49:36;;;;;;;10.07;4.75;;;17.20;99.90;;;;;;5059624;28;25068;-73
2022/08/21 05:52:02;;;;;;;8.40;3.78;;;17.20;99.90;;;;;;5059278;28;25078;-74
2022/08/21 05:54:28;;;;;;;12.60;4.15;;;17.20;99.90;;;;;;5062225;28;25070;-75
2022/08/21 05:56:54;;;;;;;9.32;4.70;;;17.30;99.90;;;;;;5066387;28;25121;-75
2022/08/21 05:59:20;;;;;;;9.43;3.72;;;17.30;99.90;;;;;;5059253;28;25071;-75
2022/08/21 06:01:45;;;;;;;11.35;3.47;;;17.30;99.90;;;;;;5073242;28;25064;-75
2022/08/21 06:04:11;;;;;;;15.35;4.50;;;17.30;99.90;;;;;;5069064;28;25066;-73
2022/08/21 06:06:37;;;;;;;10.82;3.42;;;17.30;99.90;;;;;;5069719;28;25134;-73
2022/08/21 06:09:04;;;;;;;12.45;4.10;;;17.30;99.90;;;;;;5067263;28;25065;-73
2022/08/21 06:11:29;;;;;;;12.02;4.45;;;17.30;99.90;;;;;;5066929;28;25152;-73
2022/08/21 06:13:55;;;;;;;6.22;3.60;;;17.40;99.90;;;;;;5058554;28;25483;-74
2022/08/21 06:16:22;;;;;;;11.65;4.35;;;17.40;99.90;;;;;;5076595;28;25147;-75
2022/08/21 06:18:48;;;;;;;13.30;3.97;;;17.50;99.90;;;;;;5074715;28;25057;-75
2022/08/21 06:21:14;;;;;;;16.52;3.83;;;17.50;99.90;;;;;;5084419;28;25086;-74
2022/08/21 06:23:40;;;;;;;12.50;3.67;;;17.50;99.90;;;;;;5074628;28;25086;-74
2022/08/21 06:26:07;;;;;;;14.60;5.53;;;17.70;99.90;;;;;;5072112;28;25114;-73
2022/08/21 06:28:34;;;;;;;12.85;4.13;;;17.70;99.90;;;;;;5064280;28;25061;-76
2022/08/21 06:31:00;;;;;;;8.07;3.63;;;17.70;99.90;;;;;;5059392;28;25059;-76
2022/08/21 06:33:25;;;;;;;9.23;3.35;;;17.80;99.90;;;;;;5070432;28;25065;-75
2022/08/21 06:35:51;;;;;;;13.80;3.42;;;17.70;99.90;;;;;;5061154;28;25056;-78
2022/08/21 06:38:17;;;;;;;11.45;3.17;;;17.80;99.90;;;;;;5061856;28;25074;-78
2022/08/21 06:40:43;;;;;;;11.30;3.80;;;17.80;99.90;;;;;;5064176;28;25096;-77
2022/08/21 06:43:11;;;;;;;11.43;3.40;;;17.80;99.90;;;;;;5058689;28;25063;-73
2022/08/21 06:45:37;;;;;;;10.50;3.80;;;17.90;99.90;;;;;;5061673;28;25056;-75
2022/08/21 06:48:03;;;;;;;10.82;3.55;;;18.10;99.90;;;;;;5070278;28;25063;-75
2022/08/21 06:50:30;;;;;;;9.27;3.45;;;18.10;99.90;;;;;;5066629;28;25056;-75
2022/08/21 06:53:04;;;;;;;7.85;3.53;;;18.00;99.90;;;;;;5065474;28;25107;-76
2022/08/21 06:55:30;;;;;;;7.75;3.15;;;18.10;99.90;;;;;;5061850;28;25057;-74
2022/08/21 06:57:56;;;;;;;11.45;3.83;;;18.20;99.90;;;;;;5063110;28;25055;-72
2022/08/21 07:00:21;;;;;;;10.52;4.00;;;18.30;99.90;;;;;;5058609;28;25054;-73
2022/08/21 07:02:47;;;;;;;15.10;4.22;;;18.20;99.90;;;;;;5056288;28;25113;-73
2022/08/21 07:05:13;;;;;;;11.30;4.65;;;18.20;99.90;;;;;;5057235;28;25103;-75
2022/08/21 07:07:39;;;;;;;9.07;3.53;;;18.30;99.90;;;;;;5057953;28;25083;-75
2022/08/21 07:10:04;;;;;;;9.80;3.47;;;18.40;99.90;;;;;;5057833;28;25113;-75
2022/08/21 07:12:31;;;;;;;7.88;3.20;;;18.40;99.90;;;;;;5058859;28;25166;-76
2022/08/21 07:14:56;;;;;;;13.43;3.80;;;18.60;99.90;;;;;;5063955;28;25092;-74
2022/08/21 07:17:22;;;;;;;12.50;3.63;;;18.70;99.90;;;;;;5056266;28;25104;-75
2022/08/21 07:19:47;;;;;;;12.77;4.32;;;18.60;99.90;;;;;;5060639;28;25075;-73
2022/08/21 07:22:16;;;;;;;11.40;4.07;;;18.60;99.90;;;;;;5065781;28;25087;-75
2022/08/21 07:24:41;;;;;;;11.05;3.75;;;18.70;99.90;;;;;;5066912;28;25132;-74
2022/08/21 07:27:07;;;;;;;12.43;3.83;;;18.90;99.90;;;;;;5062896;28;25067;-72
2022/08/21 07:29:32;;;;;;;11.82;4.32;;;19.00;99.90;;;;;;5070255;28;25083;-74
2022/08/21 07:31:58;;;;;;;7.50;3.22;;;19.10;99.90;;;;;;5063070;28;25094;-74
2022/08/21 07:34:23;;;;;;;9.63;3.97;;;19.10;99.90;;;;;;5065695;28;25093;-78
2022/08/21 07:36:49;;;;;;;8.70;3.13;;;19.20;99.90;;;;;;5071716;28;25053;-78
2022/08/21 07:39:14;;;;;;;14.90;3.88;;;19.50;99.90;;;;;;5058613;28;25078;-75
2022/08/21 07:41:40;;;;;;;15.48;3.92;;;19.40;99.90;;;;;;5062197;28;25058;-76
2022/08/21 07:44:05;;;;;;;9.63;4.00;;;19.60;99.90;;;;;;5069685;28;25059;-75
2022/08/21 07:46:31;;;;;;;11.27;3.78;;;19.50;99.90;;;;;;5053483;28;25094;-75
2022/08/21 07:48:57;;;;;;;12.43;4.10;;;19.80;99.90;;;;;;5062057;28;25069;-74
2022/08/21 07:51:26;;;;;;;13.10;3.55;;;19.70;99.90;;;;;;5063856;28;25114;-79
2022/08/21 07:53:54;;;;;;;12.20;4.05;;;19.90;99.90;;;;;;5069490;28;25125;-77
2022/08/21 07:56:21;;;;;;;12.73;4.10;;;20.10;99.90;;;;;;5059620;28;25043;-75
2022/08/21 07:58:47;;;;;;;17.02;4.10;;;20.30;99.90;;;;;;5065933;28;25074;-76
2022/08/21 08:01:13;;;;;;;14.00;3.97;;;20.60;99.90;;;;;;5067900;28;25091;-74
2022/08/21 08:03:39;;;;;;;11.40;4.20;;;20.80;99.90;;;;;;5062958;28;25088;-74
2022/08/21 08:06:06;;;;;;;14.75;3.67;;;21.00;99.90;;;;;;5056250;28;25103;-75
2022/08/21 08:08:32;;;;;;;15.07;4.78;;;20.90;99.90;;;;;;5061463;28;25068;-75
2022/08/21 08:10:59;;;;;;;12.70;3.20;;;21.00;99.90;;;;;;5050002;28;25122;-76
2022/08/21 08:13:25;;;;;;;7.20;2.78;;;21.40;99.90;;;;;;5057733;28;25060;-74
2022/08/21 08:15:51;;;;;;;9.98;2.80;;;21.60;99.90;;;;;;5052862;28;25086;-80
2022/08/21 08:18:16;;;;;;;13.48;3.40;;;21.60;99.90;;;;;;5050314;28;25141;-76
2022/08/21 08:20:42;;;;;;;9.70;3.78;;;21.60;99.90;;;;;;5052489;28;25129;-75
2022/08/21 08:23:14;;;;;;;7.35;2.47;;;21.60;99.90;;;;;;5055969;28;25129;-77
2022/08/21 08:25:40;;;;;;;8.65;3.10;;;21.80;99.90;;;;;;5053756;28;25062;-74
2022/08/21 08:28:06;;;;;;;11.50;2.85;;;22.00;99.90;;;;;;5053266;28;25057;-78
2022/08/21 08:30:33;;;;;;;6.07;3.55;;;21.80;99.90;;;;;;5049699;28;25065;-77
2022/08/21 08:32:59;;;;;;;13.35;3.38;;;22.00;99.90;;;;;;5054190;28;25054;-75
2022/08/21 08:35:25;;;;;;;7.63;2.63;;;21.60;99.90;;;;;;5051627;28;25053;-74
2022/08/21 08:37:51;;;;;;;13.02;3.22;;;21.50;99.90;;;;;;5053081;28;25079;-77
2022/08/21 08:40:50;;;;;;;10.95;2.67;;;21.40;99.90;;;;;;5060151;28;25069;-75
2022/08/21 08:43:15;;;;;;;12.60;3.63;;;21.50;99.90;;;;;;5053535;28;25088;-74
2022/08/21 08:45:50;;;;;;;5.65;2.28;;;21.70;99.90;;;;;;5055878;28;25105;-76
2022/08/21 08:48:50;;;;;;;10.85;2.97;;;21.90;99.90;;;;;;5056534;28;25094;-74
2022/08/21 08:51:53;;;;;;;6.35;2.15;;;21.90;99.90;;;;;;5052803;28;25065;-73
2022/08/21 08:54:21;;;;;;;;;;;21.80;99.90;;;;;;5058208;28;25076;-76
2022/08/21 08:56:47;;;;;;;5.90;2.10;;;21.50;99.90;;;;;;5062843;28;24134;-74
2022/08/21 08:59:19;;;;;;;9.73;2.65;;;21.40;99.90;;;;;;5069553;28;25080;-74
2022/08/21 09:01:45;;;;;;;;;;;21.40;99.90;;;;;;5074473;28;25055;-74
2022/08/21 09:04:12;;;;;;;11.52;2.63;;;21.50;99.90;;;;;;5057952;28;24076;-72
2022/08/21 09:06:47;;;;;;;10.57;3.03;;;21.30;99.90;;;;;;5054879;28;25058;-75
2022/08/21 09:09:21;;;;;;;10.20;2.75;;;21.60;99.90;;;;;;5067774;28;25078;-73
2022/08/21 09:11:50;;;;;;;6.10;1.75;;;21.80;99.90;;;;;;5065225;28;25052;-76
2022/08/21 09:14:33;;;;;;;7.05;2.08;;;22.00;99.90;;;;;;5059719;28;25055;-73
2022/08/21 09:17:22;;;;;;;8.10;2.10;;;21.90;99.90;;;;;;5060862;28;25059;-74
2022/08/21 09:20:13;;;;;;;5.60;1.60;;;22.10;99.90;;;;;;5060207;28;25071;-74
2022/08/21 09:23:01;;;;;;;12.10;2.00;;;22.40;99.90;;;;;;5059979;28;25097;-75
2022/08/21 09:25:40;;;;;;;9.30;1.80;;;22.80;99.90;;;;;;5055905;28;25084;-73
2022/08/21 09:28:12;;;;;;;4.18;1.60;;;22.70;99.90;;;;;;5063234;28;25053;-75
2022/08/21 09:30:40;;;;;;;5.55;2.33;;;22.80;99.90;;;;;;5058005;28;25127;-75
2022/08/21 09:33:06;;;;;;;6.82;1.60;;;22.60;99.90;;;;;;5052967;28;25145;-72
2022/08/21 09:35:32;;;;;;;7.65;2.20;;;22.50;99.90;;;;;;5065316;28;25060;-74
2022/08/21 09:38:05;;;;;;;15.00;3.22;;;22.30;99.90;;;;;;5065408;28;25143;-78
2022/08/21 09:40:37;;;;;;;7.90;2.20;;;22.40;99.90;;;;;;5056919;28;25150;-75
2022/08/21 09:43:03;;;;;;;;;;;22.60;99.90;;;;;;5054483;28;25079;-72
2022/08/21 09:45:29;;;;;;;7.60;1.50;;;22.70;99.90;;;;;;5084974;28;25067;-75
2022/08/21 09:47:55;;;;;;;6.93;2.30;;;22.50;99.90;;;;;;5054963;28;25156;-75
2022/08/21 09:50:25;;;;;;;7.50;1.60;;;22.70;99.90;;;;;;5063229;28;25085;-75
2022/08/21 09:52:55;;;;;;;6.80;2.28;;;22.80;99.90;;;;;;5062157;28;25057;-75
2022/08/21 09:58:19;;;;;;;5.45;1.35;;;22.90;99.90;;;;;;5062263;28;25108;-73
2022/08/21 10:00:47;;;;;;;6.00;1.73;;;23.20;99.90;;;;;;5071506;28;25106;-73
2022/08/21 10:03:21;;;;;;;6.25;2.08;;;23.20;99.90;;;;;;5064460;28;25165;-73
2022/08/21 10:06:05;;;;;;;4.80;1.50;;;23.40;99.90;;;;;;5077499;28;25065;-72
2022/08/21 10:08:32;;;;;;;9.40;1.98;;;23.30;99.90;;;;;;5078106;28;25063;-73
2022/08/21 10:11:07;;;;;;;8.05;2.00;;;23.30;99.90;;;;;;5061138;28;25154;-72
2022/08/21 10:13:56;;;;;;;6.35;2.00;;;23.40;99.90;;;;;;5060598;28;25120;-71
2022/08/21 10:17:00;;;;;;;11.43;2.45;;;23.60;99.90;;;;;;5069811;28;25064;-73
2022/08/21 10:19:43;;;;;;;7.95;1.50;;;23.50;99.90;;;;;;5056635;28;25048;-72
2022/08/21 10:22:32;;;;;;;7.63;1.83;;;23.30;99.90;;;;;;5070072;28;25053;-74
2022/08/21 10:25:13;;;;;;;4.47;1.73;;;23.60;99.90;;;;;;5062785;28;25067;-72
2022/08/21 10:27:51;;;;;;;5.63;1.60;;;23.70;99.90;;;;;;5060404;28;25121;-73
2022/08/21 10:30:38;;;;;;;4.18;1.38;;;23.60;99.90;;;;;;5063004;28;25077;-73
2022/08/21 10:33:16;;;;;;;4.80;1.40;;;23.30;99.90;;;;;;5063577;28;25073;-71
2022/08/21 10:35:51;;;;;;;4.75;1.40;;;22.90;99.90;;;;;;5061166;28;25106;-73
2022/08/21 10:38:45;;;;;;;6.88;1.45;;;23.00;99.90;;;;;;5059459;28;25066;-73
2022/08/21 10:41:21;;;;;;;3.97;1.40;;;23.50;99.90;;;;;;5063404;28;25060;-77
2022/08/21 10:44:13;;;;;;;6.68;1.63;;;24.00;99.90;;;;;;5061097;28;25072;-73
2022/08/21 10:46:46;;;;;;;6.05;1.40;;;24.00;99.90;;;;;;5060476;28;25069;-75
2022/08/21 10:49:27;;;;;;;7.57;1.42;;;23.90;99.90;;;;;;5061920;28;25152;-74
2022/08/21 10:52:23;;;;;;;7.30;1.60;;;24.00;99.90;;;;;;5066409;28;25082;-72
2022/08/21 10:54:59;;;;;;;3.03;1.55;;;24.20;99.90;;;;;;5062517;28;25108;-73
2022/08/21 10:57:25;;;;;;;4.28;1.08;;;24.10;99.90;;;;;;5058796;28;25068;-74
2022/08/21 10:59:59;;;;;;;7.55;1.45;;;24.20;99.90;;;;;;5065104;28;25076;-75
2022/08/21 11:02:33;;;;;;;4.03;1.58;;;24.40;99.90;;;;;;5064828;28;25074;-73
2022/08/21 11:05:10;;;;;;;4.28;1.27;;;24.70;99.90;;;;;;5063933;28;25188;-77
2022/08/21 11:07:45;;;;;;;3.67;1.02;;;24.60;99.90;;;;;;5064808;28;25060;-72
2022/08/21 11:10:20;;;;;;;3.13;0.93;;;24.70;99.90;;;;;;5064431;28;25168;-74
2022/08/21 11:12:58;;;;;;;2.17;1.08;;;24.80;99.90;;;;;;5067890;28;25079;-72
2022/08/21 11:15:55;;;;;;;5.97;1.20;;;24.70;99.90;;;;;;5067891;28;25067;-71
2022/08/21 11:18:21;;;;;;;6.05;1.00;;;24.60;99.90;;;;;;5063939;28;25105;-75
2022/08/21 11:21:11;;;;;;;3.47;1.20;;;24.20;99.90;;;;;;5064791;28;25175;-74
2022/08/21 11:23:43;;;;;;;3.60;1.20;;;24.10;99.90;;;;;;5065533;28;25084;-76
2022/08/21 11:26:24;;;;;;;3.60;1.30;;;24.50;99.90;;;;;;5060065;28;25073;-75
2022/08/21 11:29:01;;;;;;;6.13;1.48;;;24.80;99.90;;;;;;5066766;28;25058;-78
2022/08/21 11:32:01;;;;;;;5.63;1.58;;;24.40;99.90;;;;;;5056013;28;25104;-76
2022/08/21 11:34:35;;;;;;;4.60;2.45;;;24.30;99.90;;;;;;5065104;28;25075;-74
2022/08/21 11:38:03;;;;;;;3.65;1.60;;;24.90;99.90;;;;;;5058377;28;25099;-71
2022/08/21 11:40:50;;;;;;;6.72;1.30;;;24.70;99.90;;;;;;4982282;28;25072;-77
2022/08/21 11:43:37;;;;;;;3.15;1.35;;;24.70;99.90;;;;;;4969160;28;25058;-74
2022/08/21 11:46:42;;;;;;;5.88;1.73;;;24.40;99.90;;;;;;5052808;28;25080;-74
2022/08/21 11:49:08;;;;;;;6.30;1.20;;;24.30;99.90;;;;;;5073828;28;25069;-74
2022/08/21 11:51:53;;;;;;;7.50;1.48;;;24.50;99.90;;;;;;5078347;28;25117;-76
2022/08/21 11:54:43;;;;;;;2.60;1.15;;;24.30;99.90;;;;;;5083196;28;25142;-79
2022/08/21 11:57:21;;;;;;;4.13;2.45;;;24.70;99.90;;;;;;5074918;28;25072;-74
2022/08/21 12:00:10;;;;;;;5.85;1.65;;;25.30;99.90;;;;;;5065241;28;25067;-72
2022/08/21 12:02:48;;;;;;;7.72;1.55;;;25.00;99.90;;;;;;5070410;28;25066;-75
2022/08/21 12:05:32;;;;;;;1.95;1.15;;;24.90;99.90;;;;;;5057970;28;25053;-72
2022/08/21 12:08:10;;;;;;;6.20;1.00;;;25.20;99.90;;;;;;5058765;28;25076;-76
2022/08/21 12:10:39;;;;;;;9.95;1.92;;;25.40;99.90;;;;;;5055754;28;25078;-74
2022/08/21 12:13:22;;;;;;;5.80;1.92;;;25.00;99.90;;;;;;5055759;28;25076;-75
2022/08/21 12:15:48;;;;;;;6.95;1.60;;;25.10;99.90;;;;;;5066889;28;25081;-77
2022/08/21 12:18:30;;;;;;;3.58;1.10;;;24.80;99.90;;;;;;5066655;28;25058;-74
2022/08/21 12:21:20;;;;;;;4.63;1.70;;;24.40;99.90;;;;;;5062082;28;25124;-76
2022/08/21 12:24:02;;;;;;;7.57;1.58;;;24.10;99.90;;;;;;5061803;28;25063;-75
2022/08/21 12:26:32;;;;;;;6.85;1.77;;;23.80;99.90;;;;;;5069295;28;25064;-75
2022/08/21 12:29:32;;;;;;;5.53;1.40;;;23.40;99.90;;;;;;5072955;28;25078;-74
2022/08/21 12:32:00;;;;;;;4.45;1.35;;;24.00;99.90;;;;;;5068296;28;25064;-76
2022/08/21 12:34:45;;;;;;;6.50;1.50;;;24.30;99.90;;;;;;5072879;28;25068;-78
2022/08/21 12:37:37;;;;;;;4.80;1.70;;;24.80;99.90;;;;;;5087275;28;25133;-74
2022/08/21 12:40:10;;;;;;;2.17;0.90;;;24.90;99.90;;;;;;5087662;28;25091;-77
2022/08/21 12:42:46;;;;;;;5.82;1.55;;;25.60;99.90;;;;;;5086411;28;25360;-76
2022/08/21 12:45:33;;;;;;;3.55;1.67;;;26.00;99.90;;;;;;5075098;28;25089;-75
2022/08/21 12:48:08;;;;;;;4.15;1.10;;;26.40;99.90;;;;;;5082168;28;25070;-75
2022/08/21 12:50:44;;;;;;;4.90;1.10;;;26.50;99.90;;;;;;5072896;28;25107;-77
2022/08/21 12:53:29;;;;;;;4.55;1.40;;;26.40;99.90;;;;;;5058580;28;25069;-72
2022/08/21 12:55:59;;;;;;;4.38;1.52;;;26.00;99.90;;;;;;5057524;28;25138;-75
2022/08/21 12:58:26;;;;;;;5.53;1.80;;;26.00;99.90;;;;;;5058457;28;25158;-73
2022/08/21 13:01:20;;;;;;;4.00;1.45;;;25.60;99.90;;;;;;5052119;28;25136;-78
2022/08/21 13:03:46;;;;;;;2.72;1.45;;;25.00;99.90;;;;;;5061730;28;25102;-74